createdAt,value
2024-01-09T00:00:05.765Z,15.30
2024-01-09T00:03:04.233Z,24.30
2024-01-09T00:06:02.032Z,24.10
2024-01-09T00:09:00.098Z,23.20
2024-01-09T00:11:57.633Z,20.10
2024-01-09T00:14:55.423Z,23.10
2024-01-09T00:17:52.965Z,23.00
2024-01-09T00:20:50.906Z,21.80
2024-01-09T00:23:48.489Z,17.20
2024-01-09T00:26:46.141Z,22.70
2024-01-09T00:29:43.643Z,19.50
2024-01-09T00:32:41.337Z,27.90
2024-01-09T00:35:39.095Z,27.00
2024-01-09T00:38:36.588Z,19.00
2024-01-09T00:41:34.446Z,16.90
2024-01-09T00:44:32.386Z,17.50
2024-01-09T00:47:31.503Z,23.30
2024-01-09T00:50:29.344Z,23.00
2024-01-09T00:53:26.764Z,18.80
2024-01-09T00:56:24.650Z,22.00
2024-01-09T00:59:22.271Z,16.80
2024-01-09T01:02:20.002Z,20.10
2024-01-09T01:05:17.981Z,19.60
2024-01-09T01:08:16.158Z,18.00
2024-01-09T01:11:13.577Z,20.60
2024-01-09T01:14:11.356Z,20.80
2024-01-09T01:17:08.803Z,21.20
2024-01-09T01:20:06.462Z,24.70
2024-01-09T01:23:03.933Z,24.10
2024-01-09T01:26:01.697Z,27.20
2024-01-09T01:28:59.146Z,22.30
2024-01-09T01:31:56.833Z,18.30
2024-01-09T01:34:54.207Z,20.40
2024-01-09T01:37:53.079Z,23.10
2024-01-09T01:40:50.519Z,19.60
2024-01-09T01:43:48.193Z,20.90
2024-01-09T01:46:45.631Z,16.00
2024-01-09T01:49:43.324Z,16.80
2024-01-09T01:52:40.730Z,19.30
2024-01-09T01:55:39.038Z,22.20
2024-01-09T01:58:36.712Z,19.00
2024-01-09T02:01:34.384Z,22.50
2024-01-09T02:04:31.838Z,24.70
2024-01-09T02:07:29.518Z,21.70
2024-01-09T02:10:26.907Z,17.50
2024-01-09T02:13:24.683Z,17.20
2024-01-09T02:16:22.199Z,20.30
2024-01-09T02:19:20.007Z,23.50
2024-01-09T02:22:17.543Z,19.20
2024-01-09T02:25:15.294Z,16.40
2024-01-09T02:28:12.748Z,21.20
2024-01-09T02:31:10.896Z,18.50
2024-01-09T02:34:09.773Z,17.90
2024-01-09T02:37:08.829Z,21.80
2024-01-09T02:40:06.271Z,14.90
2024-01-09T02:43:03.998Z,18.10
2024-01-09T02:46:01.414Z,18.20
2024-01-09T02:48:59.272Z,20.90
2024-01-09T02:51:56.825Z,22.40
2024-01-09T02:54:54.608Z,19.80
2024-01-09T02:57:52.041Z,19.50
2024-01-09T03:00:49.772Z,20.00
2024-01-09T03:03:47.378Z,19.20
2024-01-09T03:06:45.262Z,19.90
2024-01-09T03:09:44.720Z,21.80
2024-01-09T03:12:42.437Z,19.80
2024-01-09T03:15:40.009Z,22.10
2024-01-09T03:18:37.751Z,20.20
2024-01-09T03:21:35.463Z,17.50
2024-01-09T03:24:33.089Z,15.00
2024-01-09T03:27:30.479Z,15.40
2024-01-09T03:30:31.200Z,21.80
2024-01-09T03:33:29.556Z,17.20
2024-01-09T03:36:28.108Z,17.60
2024-01-09T03:39:25.506Z,20.10
2024-01-09T03:42:23.098Z,21.80
2024-01-09T03:45:20.487Z,21.10
2024-01-09T03:48:18.226Z,19.20
2024-01-09T03:51:16.073Z,15.70
2024-01-09T03:54:13.490Z,20.60
2024-01-09T03:57:11.940Z,20.30
2024-01-09T04:00:09.336Z,16.40
2024-01-09T04:03:06.907Z,17.30
2024-01-09T04:06:04.413Z,18.40
2024-01-09T04:09:02.165Z,19.20
2024-01-09T04:11:59.601Z,18.90
2024-01-09T04:14:57.391Z,19.30
2024-01-09T04:17:55.315Z,19.10
2024-01-09T04:20:52.915Z,20.80
2024-01-09T04:23:51.313Z,17.00
2024-01-09T04:26:49.017Z,20.00
2024-01-09T04:29:46.770Z,23.70
2024-01-09T04:32:44.421Z,20.60
2024-01-09T04:35:42.224Z,21.00
2024-01-09T04:38:39.980Z,23.20
2024-01-09T04:41:37.530Z,21.00
2024-01-09T04:44:35.286Z,26.00
2024-01-09T04:47:33.003Z,24.00
2024-01-09T04:50:30.957Z,23.70
2024-01-09T04:53:28.434Z,18.40
2024-01-09T04:56:26.234Z,20.90
2024-01-09T04:59:23.724Z,16.80
2024-01-09T05:02:21.501Z,20.60
2024-01-09T05:05:19.124Z,18.40
2024-01-09T05:08:17.337Z,16.50
2024-01-09T05:11:18.740Z,20.20
2024-01-09T05:14:17.431Z,19.50
2024-01-09T05:17:15.369Z,18.50
2024-01-09T05:20:12.871Z,25.70
2024-01-09T05:23:10.582Z,23.50
2024-01-09T05:26:08.003Z,18.70
2024-01-09T05:29:05.769Z,22.00
2024-01-09T05:32:03.431Z,20.70
2024-01-09T05:35:02.935Z,19.30
2024-01-09T05:38:07.982Z,20.40
2024-01-09T05:44:10.303Z,16.40
2024-01-09T05:47:08.152Z,21.70
2024-01-09T05:50:05.756Z,19.10
2024-01-09T05:53:04.229Z,18.60
2024-01-09T05:56:01.599Z,20.40
2024-01-09T05:58:59.316Z,21.00
2024-01-09T06:01:56.750Z,19.60
2024-01-09T06:04:54.418Z,19.20
2024-01-09T06:07:51.807Z,24.80
2024-01-09T06:10:49.437Z,21.10
2024-01-09T06:13:46.810Z,19.90
2024-01-09T06:16:44.395Z,20.40
2024-01-09T06:19:41.814Z,18.00
2024-01-09T06:22:39.612Z,17.30
2024-01-09T06:25:37.181Z,22.50
2024-01-09T06:28:35.048Z,20.70
2024-01-09T06:31:32.599Z,21.80
2024-01-09T06:34:30.398Z,15.40
2024-01-09T06:37:28.158Z,17.30
2024-01-09T06:40:26.019Z,18.70
2024-01-09T06:43:23.796Z,18.80
2024-01-09T06:46:21.182Z,21.80
2024-01-09T06:49:18.936Z,22.70
2024-01-09T06:52:16.360Z,22.00
2024-01-09T06:55:14.026Z,24.30
2024-01-09T06:58:13.481Z,20.40
2024-01-09T07:01:13.907Z,18.50
2024-01-09T07:04:12.342Z,20.80
2024-01-09T07:07:12.921Z,20.60
2024-01-09T07:10:10.942Z,17.40
2024-01-09T07:13:08.597Z,21.40
2024-01-09T07:16:06.317Z,20.10
2024-01-09T07:19:04.635Z,20.90
2024-01-09T07:22:02.443Z,19.20
2024-01-09T07:24:59.835Z,19.30
2024-01-09T07:27:57.455Z,15.30
2024-01-09T07:30:55.926Z,22.50
2024-01-09T07:33:53.703Z,21.80
2024-01-09T07:36:51.566Z,18.70
2024-01-09T07:39:49.750Z,20.30
2024-01-09T07:42:53.632Z,20.00
2024-01-09T07:45:57.565Z,16.80
2024-01-09T07:48:55.738Z,15.70
2024-01-09T07:51:53.183Z,23.90
2024-01-09T07:54:50.883Z,19.40
2024-01-09T07:57:49.059Z,19.50
2024-01-09T08:00:46.719Z,20.20
2024-01-09T08:03:44.435Z,20.70
2024-01-09T08:06:42.198Z,23.60
2024-01-09T08:09:39.578Z,19.70
2024-01-09T08:12:37.278Z,17.50
2024-01-09T08:15:35.136Z,21.10
2024-01-09T08:18:34.583Z,21.80
2024-01-09T08:21:32.629Z,20.00
2024-01-09T08:24:30.313Z,22.20
2024-01-09T08:27:27.863Z,22.40
2024-01-09T08:30:25.557Z,22.10
2024-01-09T08:33:26.099Z,21.40
2024-01-09T08:36:25.308Z,26.70
2024-01-09T08:39:22.798Z,22.60
2024-01-09T08:42:20.495Z,20.40
2024-01-09T08:45:18.140Z,20.10
2024-01-09T08:48:16.054Z,19.30
2024-01-09T08:51:16.385Z,22.30
2024-01-09T08:54:17.596Z,20.90
2024-01-09T08:57:15.257Z,23.90
2024-01-09T09:00:12.998Z,18.20
2024-01-09T09:03:10.717Z,21.20
2024-01-09T09:06:08.805Z,16.30
2024-01-09T09:09:06.445Z,19.70
2024-01-09T09:12:05.082Z,19.40
2024-01-09T09:15:02.854Z,20.60
2024-01-09T09:18:00.891Z,23.20
2024-01-09T09:20:58.569Z,20.30
2024-01-09T09:23:56.274Z,27.80
2024-01-09T09:26:54.422Z,23.00
2024-01-09T09:29:53.995Z,23.10
2024-01-09T09:32:52.161Z,28.40
2024-01-09T09:35:50.046Z,28.10
2024-01-09T09:38:47.591Z,23.10
2024-01-09T09:41:46.339Z,27.50
2024-01-09T09:44:44.172Z,27.10
2024-01-09T09:47:41.806Z,29.20
2024-01-09T09:50:39.909Z,29.00
2024-01-09T09:53:37.484Z,25.00
2024-01-09T09:56:35.380Z,27.70
2024-01-09T09:59:32.849Z,18.70
2024-01-09T10:02:30.809Z,20.20
2024-01-09T10:05:28.766Z,22.40
2024-01-09T10:08:26.822Z,22.70
2024-01-09T10:11:24.687Z,23.70
2024-01-09T10:14:22.655Z,24.70
2024-01-09T10:17:20.257Z,24.40
2024-01-09T10:20:18.584Z,25.60
2024-01-09T10:23:16.261Z,21.20
2024-01-09T10:26:14.302Z,27.80
2024-01-09T10:29:11.742Z,25.90
2024-01-09T10:32:09.540Z,27.50
2024-01-09T10:35:08.361Z,25.20
2024-01-09T10:38:06.206Z,24.50
2024-01-09T10:41:03.609Z,27.60
2024-01-09T10:44:01.435Z,28.90
2024-01-09T10:46:59.615Z,20.60
2024-01-09T10:49:57.528Z,24.00
2024-01-09T10:52:56.327Z,29.30
2024-01-09T10:55:54.255Z,28.60
2024-01-09T10:58:51.676Z,26.80
2024-01-09T11:01:49.124Z,21.30
2024-01-09T11:04:47.246Z,27.70
2024-01-09T11:07:45.844Z,29.30
2024-01-09T11:10:44.817Z,22.90
2024-01-09T11:13:42.303Z,24.40
2024-01-09T11:16:39.768Z,29.60
2024-01-09T11:19:37.649Z,27.60
2024-01-09T11:22:35.741Z,29.20
2024-01-09T11:25:35.714Z,25.60
2024-01-09T11:28:33.565Z,24.90
2024-01-09T11:31:32.361Z,28.30
2024-01-09T11:34:30.852Z,22.80
2024-01-09T11:37:28.734Z,22.30
2024-01-09T11:40:26.163Z,23.90
2024-01-09T11:43:23.937Z,29.20
2024-01-09T11:46:21.400Z,26.10
2024-01-09T11:49:19.509Z,23.70
2024-01-09T11:52:17.310Z,28.10
2024-01-09T11:55:15.230Z,29.90
2024-01-09T11:58:13.169Z,25.50
2024-01-09T12:01:10.746Z,30.40
2024-01-09T12:04:08.783Z,26.70
2024-01-09T12:07:06.676Z,26.20
2024-01-09T12:10:12.502Z,28.80
2024-01-09T12:13:18.281Z,27.10
2024-01-09T12:16:16.080Z,25.60
2024-01-09T12:19:13.626Z,27.30
2024-01-09T12:22:11.699Z,27.70
2024-01-09T12:25:10.946Z,25.20
2024-01-09T12:28:08.830Z,24.30
2024-01-09T12:31:06.247Z,27.40
2024-01-09T12:34:05.063Z,24.00
2024-01-09T12:37:06.638Z,25.70
2024-01-09T12:40:10.685Z,28.40
2024-01-09T12:43:08.510Z,26.10
2024-01-09T12:46:06.019Z,28.20
2024-01-09T12:49:04.084Z,25.20
2024-01-09T12:52:01.751Z,28.60
2024-01-09T12:55:04.446Z,28.10
2024-01-09T12:58:02.944Z,29.70
2024-01-09T13:01:00.955Z,23.90
2024-01-09T13:03:58.524Z,24.90
2024-01-09T13:06:56.521Z,24.30
2024-01-09T13:09:53.980Z,27.40
2024-01-09T13:12:51.775Z,31.50
2024-01-09T13:15:50.568Z,29.20
2024-01-09T13:18:48.182Z,29.50
2024-01-09T13:24:46.133Z,32.10
2024-01-09T13:27:46.268Z,31.90
2024-01-09T13:30:50.185Z,29.00
2024-01-09T13:33:50.210Z,24.50
2024-01-09T13:36:49.273Z,29.30
2024-01-09T13:39:47.436Z,26.30
2024-01-09T13:42:45.318Z,29.00
2024-01-09T13:45:43.717Z,23.00
2024-01-09T13:48:41.922Z,25.80
2024-01-09T13:51:51.503Z,21.30
2024-01-09T13:54:52.678Z,29.20
2024-01-09T13:57:50.174Z,29.60
2024-01-09T14:00:48.341Z,23.60
2024-01-09T14:03:45.979Z,24.20
2024-01-09T14:06:43.946Z,27.30
2024-01-09T14:09:41.340Z,27.60
2024-01-09T14:12:39.268Z,32.30
2024-01-09T14:15:36.652Z,31.00
2024-01-09T14:18:36.736Z,20.60
2024-01-09T14:21:35.213Z,24.80
2024-01-09T14:24:33.115Z,23.30
2024-01-09T14:27:30.619Z,23.50
2024-01-09T14:30:28.524Z,29.80
2024-01-09T14:33:26.146Z,26.30
2024-01-09T14:36:24.259Z,27.20
2024-01-09T14:39:21.764Z,25.10
2024-01-09T14:42:19.919Z,22.40
2024-01-09T14:45:18.668Z,26.40
2024-01-09T14:48:16.503Z,26.50
2024-01-09T14:51:15.488Z,26.30
2024-01-09T14:54:14.005Z,22.20
2024-01-09T14:57:11.444Z,31.70
2024-01-09T15:00:11.857Z,25.20
2024-01-09T15:03:09.299Z,23.90
2024-01-09T15:06:07.341Z,27.60
2024-01-09T15:09:05.182Z,27.20
2024-01-09T15:12:03.124Z,28.20
2024-01-09T15:15:00.976Z,31.30
2024-01-09T15:17:59.072Z,30.00
2024-01-09T15:20:56.937Z,30.00
2024-01-09T15:23:54.437Z,40.70
2024-01-09T15:26:52.470Z,31.60
2024-01-09T15:29:51.069Z,28.70
2024-01-09T15:32:49.023Z,30.40
2024-01-09T15:35:48.235Z,32.20
2024-01-09T15:38:45.988Z,33.00
2024-01-09T15:41:43.390Z,32.50
2024-01-09T15:44:41.349Z,29.40
2024-01-09T15:47:41.573Z,35.40
2024-01-09T15:50:40.465Z,35.40
2024-01-09T15:53:37.840Z,29.50
2024-01-09T15:56:35.690Z,32.80
2024-01-09T15:59:33.089Z,42.10
2024-01-09T16:02:31.054Z,32.80
2024-01-09T16:05:29.595Z,39.60
2024-01-09T16:08:27.576Z,31.20
2024-01-09T16:11:24.971Z,25.60
2024-01-09T16:14:23.002Z,32.30
2024-01-09T16:17:20.557Z,34.20
2024-01-09T16:20:18.486Z,27.00
2024-01-09T16:23:15.982Z,29.80
2024-01-09T16:26:15.532Z,31.90
2024-01-09T16:29:13.571Z,33.20
2024-01-09T16:32:11.761Z,28.20
2024-01-09T16:35:09.358Z,37.50
2024-01-09T16:38:07.434Z,34.40
2024-01-09T16:41:05.248Z,33.40
2024-01-09T16:44:04.101Z,32.80
2024-01-09T16:47:02.317Z,28.30
2024-01-09T16:50:00.698Z,37.70
2024-01-09T16:52:58.256Z,37.20
2024-01-09T16:55:56.746Z,36.90
2024-01-09T16:58:54.799Z,38.50
2024-01-09T17:01:52.860Z,35.80
2024-01-09T17:04:50.436Z,32.00
2024-01-09T17:07:48.421Z,31.50
2024-01-09T17:10:46.667Z,36.40
2024-01-09T17:13:44.745Z,34.90
2024-01-09T17:16:42.319Z,40.30
2024-01-09T17:19:40.297Z,32.30
2024-01-09T17:22:39.389Z,38.30
2024-01-09T17:25:37.783Z,32.60
2024-01-09T17:28:35.223Z,36.00
2024-01-09T17:31:33.897Z,44.90
2024-01-09T17:34:31.357Z,40.20
2024-01-09T17:37:29.230Z,35.00
2024-01-09T17:40:26.676Z,36.50
2024-01-09T17:43:24.490Z,42.40
2024-01-09T17:46:22.933Z,47.20
2024-01-09T17:49:21.279Z,45.60
2024-01-09T17:52:18.730Z,42.00
2024-01-09T17:55:16.688Z,43.30
2024-01-09T17:58:14.069Z,37.40
2024-01-09T18:01:15.416Z,39.40
2024-01-09T18:04:18.282Z,44.30
2024-01-09T18:07:16.185Z,52.40
2024-01-09T18:10:13.774Z,36.10
2024-01-09T18:13:12.131Z,30.50
2024-01-09T18:16:09.835Z,41.50
2024-01-09T18:19:07.306Z,42.20
2024-01-09T18:22:04.890Z,45.30
2024-01-09T18:25:02.584Z,52.80
2024-01-09T18:28:03.997Z,43.60
2024-01-09T18:31:01.425Z,53.70
2024-01-09T18:33:59.018Z,46.40
2024-01-09T18:36:56.434Z,51.00
2024-01-09T18:39:54.700Z,47.40
2024-01-09T18:42:52.556Z,46.00
2024-01-09T18:45:50.232Z,45.60
2024-01-09T18:48:47.649Z,48.30
2024-01-09T18:51:45.670Z,55.80
2024-01-09T18:54:43.154Z,57.90
2024-01-09T18:57:40.995Z,52.60
2024-01-09T19:00:38.400Z,44.50
2024-01-09T19:03:36.195Z,38.90
2024-01-09T19:06:33.641Z,49.50
2024-01-09T19:09:31.480Z,40.10
2024-01-09T19:12:29.266Z,50.40
2024-01-09T19:15:27.021Z,42.00
2024-01-09T19:18:24.545Z,41.60
2024-01-09T19:21:22.304Z,44.20
2024-01-09T19:24:20.046Z,40.40
2024-01-09T19:27:18.053Z,45.30
2024-01-09T19:30:15.620Z,49.70
2024-01-09T19:33:13.956Z,48.70
2024-01-09T19:36:14.819Z,48.10
2024-01-09T19:39:13.014Z,40.20
2024-01-09T19:42:11.322Z,44.40
2024-01-09T19:45:09.763Z,44.30
2024-01-09T19:48:07.484Z,36.70
2024-01-09T19:51:04.952Z,45.00
2024-01-09T19:54:02.967Z,44.40
2024-01-09T19:57:00.647Z,45.40
2024-01-09T19:59:58.223Z,33.10
2024-01-09T20:02:56.080Z,47.10
2024-01-09T20:05:53.663Z,43.80
2024-01-09T20:08:51.389Z,58.10
2024-01-09T20:11:48.817Z,52.30
2024-01-09T20:14:46.728Z,53.60
2024-01-09T20:17:44.714Z,47.10
2024-01-09T20:20:42.801Z,50.80
2024-01-09T20:23:40.400Z,50.50
2024-01-09T20:26:37.820Z,80.10
2024-01-09T20:29:36.462Z,78.10
2024-01-09T20:32:34.009Z,85.80
2024-01-09T20:35:31.705Z,72.70
2024-01-09T20:38:31.338Z,98.40
2024-01-09T20:41:31.529Z,85.40
2024-01-09T20:44:29.649Z,73.20
2024-01-09T20:47:27.336Z,79.70
2024-01-09T20:50:25.346Z,82.80
2024-01-09T20:53:22.903Z,71.20
2024-01-09T20:56:20.636Z,68.70
2024-01-09T20:59:18.725Z,67.90
2024-01-09T21:02:19.952Z,65.70
2024-01-09T21:05:17.480Z,56.90
2024-01-09T21:08:15.677Z,48.30
2024-01-09T21:11:13.444Z,42.10
2024-01-09T21:14:11.518Z,51.30
2024-01-09T21:17:09.655Z,50.20
2024-01-09T21:20:07.552Z,50.10
2024-01-09T21:23:05.295Z,51.20
2024-01-09T21:26:03.211Z,41.80
2024-01-09T21:29:01.606Z,42.80
2024-01-09T21:31:59.589Z,46.30
2024-01-09T21:34:57.574Z,43.40
2024-01-09T21:37:55.409Z,47.20
2024-01-09T21:40:58.984Z,47.60
2024-01-09T21:43:57.790Z,45.90
2024-01-09T21:46:55.269Z,47.60
2024-01-09T21:49:52.919Z,43.40
2024-01-09T21:52:50.402Z,46.90
2024-01-09T21:55:48.046Z,40.70
2024-01-09T21:58:45.497Z,35.80
2024-01-09T22:01:43.280Z,45.20
2024-01-09T22:04:40.744Z,45.60
2024-01-09T22:07:38.468Z,38.40
2024-01-09T22:10:36.310Z,35.20
2024-01-09T22:13:33.791Z,42.50
2024-01-09T22:16:31.664Z,39.90
2024-01-09T22:19:29.112Z,39.30
2024-01-09T22:22:26.906Z,39.40
2024-01-09T22:25:24.303Z,35.50
2024-01-09T22:28:22.040Z,43.50
2024-01-09T22:31:19.918Z,33.80
2024-01-09T22:34:17.809Z,38.70
2024-01-09T22:37:15.218Z,41.30
2024-01-09T22:40:12.806Z,42.30
2024-01-09T22:43:10.244Z,39.30
2024-01-09T22:46:07.913Z,37.40
2024-01-09T22:49:06.527Z,41.00
2024-01-09T22:52:04.380Z,39.80
2024-01-09T22:55:02.041Z,32.30
2024-01-09T22:57:59.453Z,40.40
2024-01-09T23:00:59.442Z,38.90
2024-01-09T23:03:56.867Z,34.80
2024-01-09T23:06:54.521Z,39.30
2024-01-09T23:09:52.209Z,35.00
2024-01-09T23:12:50.221Z,41.30
2024-01-09T23:15:47.890Z,37.60
2024-01-09T23:18:45.621Z,39.00
2024-01-09T23:21:43.083Z,42.70
2024-01-09T23:24:40.659Z,38.00
2024-01-09T23:27:38.034Z,45.50
2024-01-09T23:30:35.724Z,39.10
2024-01-09T23:33:33.497Z,47.30
2024-01-09T23:36:31.290Z,45.20
2024-01-09T23:39:29.056Z,39.20
2024-01-09T23:42:26.446Z,37.00
2024-01-09T23:45:24.053Z,37.90
2024-01-09T23:48:21.583Z,40.60
2024-01-09T23:51:19.258Z,41.40
2024-01-09T23:54:17.492Z,46.30
2024-01-09T23:57:15.379Z,41.70
